createdAt,value
2023-04-07T00:00:54.696Z,75.95
2023-04-07T00:01:54.739Z,75.63
2023-04-07T00:02:54.776Z,74.60
2023-04-07T00:03:54.846Z,74.60
2023-04-07T00:04:54.684Z,75.12
2023-04-07T00:05:54.670Z,74.91
2023-04-07T00:06:54.610Z,74.29
2023-04-07T00:07:56.986Z,75.02
2023-04-07T00:08:54.625Z,74.91
2023-04-07T00:09:54.588Z,75.22
2023-04-07T00:10:54.579Z,75.12
2023-04-07T00:11:54.557Z,74.91
2023-04-07T00:12:54.565Z,77.09
2023-04-07T00:13:54.943Z,78.64
2023-04-07T00:14:54.525Z,77.39
2023-04-07T00:15:54.567Z,78.02
2023-04-07T00:16:54.511Z,78.33
2023-04-07T00:17:54.542Z,77.60
2023-04-07T00:18:54.485Z,77.29
2023-04-07T00:19:54.476Z,76.88
2023-04-07T00:20:54.477Z,77.39
2023-04-07T00:21:54.464Z,77.50
2023-04-07T00:22:54.449Z,77.81
2023-04-07T00:23:54.616Z,78.74
2023-04-07T00:24:54.418Z,79.16
2023-04-07T00:25:54.424Z,79.88
2023-04-07T00:26:54.402Z,80.95
2023-04-07T00:27:54.392Z,81.37
2023-04-07T00:28:54.383Z,81.26
2023-04-07T00:29:54.369Z,81.23
2023-04-07T00:30:54.443Z,81.26
2023-04-07T00:31:54.369Z,81.37
2023-04-07T00:32:54.403Z,80.91
2023-04-07T00:33:54.533Z,79.26
2023-04-07T00:34:54.320Z,79.67
2023-04-07T00:35:54.442Z,78.85
2023-04-07T00:36:54.303Z,79.16
2023-04-07T00:37:54.297Z,78.22
2023-04-07T00:38:54.276Z,79.12
2023-04-07T00:39:54.271Z,78.95
2023-04-07T00:40:54.260Z,78.29
2023-04-07T00:41:54.251Z,81.23
2023-04-07T00:42:54.239Z,81.74
2023-04-07T00:43:54.323Z,81.91
2023-04-07T00:44:54.212Z,82.64
2023-04-07T00:45:54.224Z,82.46
2023-04-07T00:46:54.269Z,82.46
2023-04-07T00:47:54.204Z,83.09
2023-04-07T00:48:54.166Z,82.05
2023-04-07T00:49:54.162Z,82.36
2023-04-07T00:50:54.164Z,81.84
2023-04-07T00:51:54.150Z,81.60
2023-04-07T00:52:54.130Z,81.74
2023-04-07T00:53:54.331Z,82.88
2023-04-07T00:54:54.098Z,84.08
2023-04-07T00:55:54.115Z,84.22
2023-04-07T00:56:54.115Z,83.50
2023-04-07T00:57:54.074Z,83.09
2023-04-07T00:58:54.065Z,82.36
2023-04-07T00:59:54.063Z,82.26
2023-04-07T01:00:54.047Z,82.88
2023-04-07T01:01:54.120Z,83.46
2023-04-07T01:02:54.171Z,83.19
2023-04-07T01:03:54.454Z,83.56
2023-04-07T01:04:54.047Z,83.36
2023-04-07T01:05:54.016Z,83.09
2023-04-07T01:06:53.970Z,83.40
2023-04-07T01:07:53.970Z,83.29
2023-04-07T01:08:53.951Z,84.95
2023-04-07T01:09:53.950Z,85.78
2023-04-07T01:10:53.943Z,86.29
2023-04-07T01:11:53.919Z,87.43
2023-04-07T01:12:53.911Z,87.23
2023-04-07T01:13:54.181Z,86.19
2023-04-07T01:14:53.899Z,84.84
2023-04-07T01:15:53.906Z,86.09
2023-04-07T01:16:55.160Z,86.67
2023-04-07T01:17:53.894Z,85.99
2023-04-07T01:18:53.861Z,85.02
2023-04-07T01:19:53.841Z,84.60
2023-04-07T01:20:53.837Z,84.87
2023-04-07T01:21:53.817Z,84.97
2023-04-07T01:22:53.799Z,85.02
2023-04-07T01:23:54.029Z,85.39
2023-04-07T01:24:53.805Z,85.60
2023-04-07T01:25:53.800Z,85.80
2023-04-07T01:26:53.756Z,86.83
2023-04-07T01:27:53.769Z,85.55
2023-04-07T01:28:53.740Z,85.66
2023-04-07T01:29:53.727Z,85.86
2023-04-07T01:30:53.714Z,85.62
2023-04-07T01:31:53.782Z,85.31
2023-04-07T01:32:53.741Z,85.83
2023-04-07T01:33:53.760Z,86.10
2023-04-07T01:34:53.679Z,86.30
2023-04-07T01:35:53.661Z,86.10
2023-04-07T01:36:53.713Z,84.96
2023-04-07T01:37:53.641Z,83.83
2023-04-07T01:38:53.631Z,83.83
2023-04-07T01:39:53.616Z,83.41
2023-04-07T01:40:53.624Z,83.31
2023-04-07T01:41:53.626Z,84.03
2023-04-07T01:42:53.590Z,85.99
2023-04-07T01:43:53.714Z,84.96
2023-04-07T01:44:53.563Z,85.17
2023-04-07T01:45:53.557Z,84.65
2023-04-07T01:46:53.606Z,84.55
2023-04-07T01:47:53.585Z,84.44
2023-04-07T01:48:53.513Z,84.72
2023-04-07T01:49:53.515Z,84.55
2023-04-07T01:50:53.492Z,84.23
2023-04-07T01:51:53.500Z,84.44
2023-04-07T01:52:53.494Z,84.61
2023-04-07T01:53:53.656Z,84.34
2023-04-07T01:54:53.456Z,84.44
2023-04-07T01:55:53.460Z,83.78
2023-04-07T01:56:53.484Z,83.93
2023-04-07T01:57:53.446Z,84.44
2023-04-07T01:58:53.413Z,82.65
2023-04-07T01:59:53.433Z,82.65
2023-04-07T02:00:53.418Z,82.34
2023-04-07T02:01:53.498Z,83.37
2023-04-07T02:02:53.495Z,82.86
2023-04-07T02:03:53.857Z,82.75
2023-04-07T02:04:53.357Z,83.51
2023-04-07T02:05:53.350Z,83.06
2023-04-07T02:06:53.343Z,83.58
2023-04-07T02:07:53.327Z,83.68
2023-04-07T02:08:53.320Z,82.86
2023-04-07T02:09:53.304Z,82.96
2023-04-07T02:10:53.292Z,83.27
2023-04-07T02:11:53.293Z,83.68
2023-04-07T02:12:53.270Z,83.89
2023-04-07T02:13:53.494Z,84.72
2023-04-07T02:14:53.241Z,84.09
2023-04-07T02:15:53.291Z,83.78
2023-04-07T02:16:53.300Z,84.61
2023-04-07T02:17:53.239Z,83.89
2023-04-07T02:18:53.206Z,83.78
2023-04-07T02:19:53.200Z,83.58
2023-04-07T02:20:53.180Z,83.37
2023-04-07T02:21:53.209Z,83.48
2023-04-07T02:22:53.177Z,84.41
2023-04-07T02:23:53.203Z,83.58
2023-04-07T02:24:53.142Z,83.27
2023-04-07T02:25:53.135Z,83.27
2023-04-07T02:26:53.151Z,83.17
2023-04-07T02:27:53.127Z,83.37
2023-04-07T02:28:53.100Z,83.48
2023-04-07T02:29:53.096Z,83.58
2023-04-07T02:30:53.088Z,82.96
2023-04-07T02:31:53.176Z,83.99
2023-04-07T02:32:53.133Z,84.30
2023-04-07T02:33:53.139Z,85.33
2023-04-07T02:34:53.064Z,85.02
2023-04-07T02:35:53.040Z,84.41
2023-04-07T02:36:53.053Z,85.64
2023-04-07T02:37:53.007Z,85.02
2023-04-07T02:38:53.000Z,85.64
2023-04-07T02:39:52.983Z,85.54
2023-04-07T02:40:52.974Z,85.44
2023-04-07T02:41:52.981Z,84.92
2023-04-07T02:42:52.950Z,84.92
2023-04-07T02:43:53.245Z,84.72
2023-04-07T02:44:52.940Z,84.09
2023-04-07T02:45:52.960Z,83.58
2023-04-07T02:46:52.938Z,84.47
2023-04-07T02:47:52.998Z,85.30
2023-04-07T02:48:52.881Z,85.64
2023-04-07T02:49:54.045Z,85.54
2023-04-07T02:50:54.036Z,85.54
2023-04-07T02:51:54.000Z,85.64
2023-04-07T02:52:53.975Z,85.64
2023-04-07T02:53:54.246Z,85.02
2023-04-07T02:54:53.973Z,84.72
2023-04-07T02:55:53.975Z,85.85
2023-04-07T02:56:53.960Z,86.16
2023-04-07T02:57:53.940Z,85.64
2023-04-07T02:58:53.940Z,85.64
2023-04-07T02:59:53.911Z,86.36
2023-04-07T03:00:53.921Z,85.64
2023-04-07T03:01:54.109Z,85.33
2023-04-07T03:02:54.083Z,85.33
2023-04-07T03:03:54.139Z,85.85
2023-04-07T03:04:53.896Z,85.19
2023-04-07T03:05:53.874Z,85.23
2023-04-07T03:06:53.878Z,85.33
2023-04-07T03:07:53.868Z,84.99
2023-04-07T03:08:53.859Z,85.54
2023-04-07T03:09:53.878Z,85.33
2023-04-07T03:10:53.856Z,85.95
2023-04-07T03:11:53.821Z,86.16
2023-04-07T03:12:53.800Z,85.85
2023-04-07T03:13:53.989Z,85.44
2023-04-07T03:14:53.813Z,85.33
2023-04-07T03:15:53.793Z,86.02
2023-04-07T03:16:53.837Z,85.54
2023-04-07T03:17:53.809Z,86.05
2023-04-07T03:18:53.763Z,86.16
2023-04-07T03:19:53.750Z,86.26
2023-04-07T03:20:53.746Z,86.05
2023-04-07T03:21:53.775Z,86.57
2023-04-07T03:22:53.708Z,86.47
2023-04-07T03:23:54.005Z,86.57
2023-04-07T03:24:53.722Z,86.78
2023-04-07T03:25:53.684Z,86.68
2023-04-07T03:26:53.689Z,86.68
2023-04-07T03:27:53.671Z,86.68
2023-04-07T03:28:53.654Z,86.16
2023-04-07T03:29:53.668Z,86.36
2023-04-07T03:30:53.657Z,87.08
2023-04-07T03:31:53.691Z,86.57
2023-04-07T03:32:53.716Z,86.26
2023-04-07T03:33:53.926Z,87.29
2023-04-07T03:34:53.611Z,86.68
2023-04-07T03:35:53.604Z,85.95
2023-04-07T03:36:53.609Z,86.26
2023-04-07T03:37:53.567Z,86.36
2023-04-07T03:38:53.573Z,86.26
2023-04-07T03:39:53.554Z,86.26
2023-04-07T03:40:53.548Z,86.57
2023-04-07T03:41:53.549Z,87.40
2023-04-07T03:42:53.538Z,88.12
2023-04-07T03:43:53.722Z,88.12
2023-04-07T03:44:53.488Z,87.40
2023-04-07T03:45:53.512Z,86.57
2023-04-07T03:46:53.532Z,86.88
2023-04-07T03:47:53.545Z,87.29
2023-04-07T03:48:53.468Z,87.71
2023-04-07T03:49:53.457Z,88.22
2023-04-07T03:50:53.448Z,88.12
2023-04-07T03:51:53.454Z,88.02
2023-04-07T03:52:53.412Z,87.50
2023-04-07T03:53:53.635Z,88.02
2023-04-07T03:54:53.423Z,87.81
2023-04-07T03:55:53.398Z,86.57
2023-04-07T03:56:53.440Z,86.98
2023-04-07T03:57:53.363Z,86.78
2023-04-07T03:58:53.404Z,86.43
2023-04-07T03:59:53.365Z,86.47
2023-04-07T04:00:53.366Z,86.22
2023-04-07T04:01:53.420Z,85.91
2023-04-07T04:02:53.390Z,86.12
2023-04-07T04:03:53.611Z,86.22
2023-04-07T04:04:53.484Z,85.95
2023-04-07T04:05:53.304Z,86.63
2023-04-07T04:06:53.313Z,86.16
2023-04-07T04:07:53.261Z,85.91
2023-04-07T04:08:53.259Z,86.26
2023-04-07T04:09:53.235Z,85.85
2023-04-07T04:10:53.254Z,86.26
2023-04-07T04:11:53.258Z,86.05
2023-04-07T04:12:53.239Z,86.05
2023-04-07T04:13:53.395Z,86.26
2023-04-07T04:14:53.201Z,86.05
2023-04-07T04:15:53.243Z,86.68
2023-04-07T04:16:53.210Z,87.19
2023-04-07T04:17:53.234Z,86.47
2023-04-07T04:18:53.185Z,86.68
2023-04-07T04:19:53.164Z,86.57
2023-04-07T04:20:53.166Z,86.88
2023-04-07T04:21:53.149Z,87.19
2023-04-07T04:22:53.166Z,87.40
2023-04-07T04:23:53.471Z,87.50
2023-04-07T04:24:53.112Z,86.36
2023-04-07T04:25:53.084Z,87.50
2023-04-07T04:26:53.098Z,86.78
2023-04-07T04:27:53.099Z,87.40
2023-04-07T04:28:53.065Z,87.50
2023-04-07T04:29:53.072Z,88.02
2023-04-07T04:30:53.057Z,86.68
2023-04-07T04:31:53.035Z,87.19
2023-04-07T04:32:53.094Z,86.68
2023-04-07T04:33:53.356Z,86.57
2023-04-07T04:34:53.012Z,86.16
2023-04-07T04:35:53.015Z,85.95
2023-04-07T04:36:53.016Z,85.44
2023-04-07T04:37:52.997Z,85.75
2023-04-07T04:38:52.960Z,86.57
2023-04-07T04:39:52.973Z,88.12
2023-04-07T04:40:52.940Z,89.67
2023-04-07T04:41:52.923Z,87.92
2023-04-07T04:42:52.977Z,87.60
2023-04-07T04:43:52.936Z,87.92
2023-04-07T04:44:52.911Z,87.29
2023-04-07T04:45:52.887Z,86.88
2023-04-07T04:46:52.925Z,86.57
2023-04-07T04:47:52.957Z,86.26
2023-04-07T04:48:52.918Z,86.26
2023-04-07T04:49:52.863Z,85.85
2023-04-07T04:50:52.857Z,86.78
2023-04-07T04:51:52.860Z,86.68
2023-04-07T04:52:52.883Z,86.98
2023-04-07T04:53:53.002Z,86.36
2023-04-07T04:54:52.800Z,86.94
2023-04-07T04:55:52.800Z,86.05
2023-04-07T04:56:52.796Z,86.05
2023-04-07T04:57:52.810Z,85.33
2023-04-07T04:58:52.795Z,85.02
2023-04-07T04:59:52.774Z,85.44
2023-04-07T05:00:52.798Z,85.19
2023-04-07T05:01:53.971Z,85.60
2023-04-07T05:02:52.951Z,84.88
2023-04-07T05:03:53.200Z,85.50
2023-04-07T05:04:52.822Z,85.09
2023-04-07T05:05:52.721Z,85.81
2023-04-07T05:06:52.679Z,86.94
2023-04-07T05:07:52.697Z,86.74
2023-04-07T05:08:52.697Z,86.43
2023-04-07T05:09:52.677Z,86.12
2023-04-07T05:10:52.660Z,86.22
2023-04-07T05:11:52.643Z,86.53
2023-04-07T05:12:52.658Z,86.63
2023-04-07T05:13:52.879Z,86.43
2023-04-07T05:14:52.615Z,86.12
2023-04-07T05:15:52.682Z,86.08
2023-04-07T05:16:52.597Z,85.77
2023-04-07T05:17:52.608Z,86.49
2023-04-07T05:18:52.568Z,86.90
2023-04-07T05:19:52.586Z,87.42
2023-04-07T05:20:52.538Z,87.63
2023-04-07T05:21:52.565Z,87.93
2023-04-07T05:22:52.572Z,86.49
2023-04-07T05:23:52.852Z,87.93
2023-04-07T05:24:52.507Z,87.32
2023-04-07T05:25:52.480Z,87.21
2023-04-07T05:26:52.508Z,87.90
2023-04-07T05:27:52.502Z,88.04
2023-04-07T05:28:52.474Z,88.10
2023-04-07T05:29:52.456Z,87.07
2023-04-07T05:30:52.452Z,87.27
2023-04-07T05:31:52.488Z,87.99
2023-04-07T05:32:53.489Z,87.03
2023-04-07T05:33:52.853Z,88.62
2023-04-07T05:34:52.421Z,87.99
2023-04-07T05:35:52.426Z,88.37
2023-04-07T05:36:52.390Z,87.90
2023-04-07T05:37:52.373Z,85.01
2023-04-07T05:38:53.346Z,85.11
2023-04-07T05:39:52.350Z,83.98
2023-04-07T05:40:52.391Z,83.15
2023-04-07T05:41:52.361Z,82.84
2023-04-07T05:42:52.355Z,82.54
2023-04-07T05:43:52.562Z,83.15
2023-04-07T05:44:52.280Z,82.12
2023-04-07T05:45:52.331Z,82.64
2023-04-07T05:46:52.286Z,81.71
2023-04-07T05:47:52.357Z,81.96
2023-04-07T05:48:52.273Z,81.61
2023-04-07T05:49:52.257Z,81.71
2023-04-07T05:50:52.242Z,82.23
2023-04-07T05:51:53.243Z,80.68
2023-04-07T05:52:52.237Z,80.99
2023-04-07T05:53:52.544Z,81.75
2023-04-07T05:54:52.219Z,82.47
2023-04-07T05:55:52.194Z,81.96
2023-04-07T05:56:52.187Z,81.44
2023-04-07T05:57:52.197Z,80.72
2023-04-07T05:58:52.176Z,81.03
2023-04-07T05:59:52.148Z,80.55
2023-04-07T06:00:52.145Z,81.48
2023-04-07T06:01:52.229Z,80.96
2023-04-07T06:02:52.269Z,81.41
2023-04-07T06:03:52.404Z,81.41
2023-04-07T06:04:52.137Z,81.62
2023-04-07T06:05:52.119Z,83.06
2023-04-07T06:06:52.094Z,82.86
2023-04-07T06:07:52.107Z,82.14
2023-04-07T06:08:52.072Z,82.17
2023-04-07T06:09:52.048Z,82.65
2023-04-07T06:10:52.066Z,82.34
2023-04-07T06:11:52.040Z,82.17
2023-04-07T06:12:52.057Z,83.17
2023-04-07T06:13:52.006Z,84.03
2023-04-07T06:14:52.026Z,84.41
2023-04-07T06:15:51.982Z,83.27
2023-04-07T06:16:52.080Z,83.93
2023-04-07T06:17:52.032Z,83.93
2023-04-07T06:18:51.977Z,84.09
2023-04-07T06:19:51.946Z,83.89
2023-04-07T06:20:51.944Z,83.51
2023-04-07T06:21:51.934Z,84.09
2023-04-07T06:22:51.935Z,84.13
2023-04-07T06:23:52.117Z,83.93
2023-04-07T06:24:51.902Z,83.41
2023-04-07T06:25:51.911Z,82.79
2023-04-07T06:26:51.876Z,81.76
2023-04-07T06:27:51.890Z,81.96
2023-04-07T06:28:51.857Z,83.83
2023-04-07T06:29:51.878Z,83.51
2023-04-07T06:30:51.872Z,83.41
2023-04-07T06:31:51.834Z,82.07
2023-04-07T06:32:51.853Z,82.89
2023-04-07T06:33:51.815Z,83.31
2023-04-07T06:34:51.813Z,82.38
2023-04-07T06:35:51.821Z,83.00
2023-04-07T06:36:51.823Z,82.89
2023-04-07T06:37:51.774Z,81.66
2023-04-07T06:38:51.749Z,80.73
2023-04-07T06:39:51.736Z,80.90
2023-04-07T06:40:51.737Z,82.55
2023-04-07T06:41:51.723Z,82.34
2023-04-07T06:42:51.725Z,82.65
2023-04-07T06:43:51.714Z,82.86
2023-04-07T06:44:51.718Z,82.30
2023-04-07T06:45:51.724Z,81.00
2023-04-07T06:46:51.684Z,81.58
2023-04-07T06:47:51.731Z,80.76
2023-04-07T06:48:51.686Z,80.44
2023-04-07T06:49:51.651Z,80.65
2023-04-07T06:50:51.809Z,81.27
2023-04-07T06:51:51.613Z,82.71
2023-04-07T06:52:51.703Z,81.68
2023-04-07T06:53:51.722Z,81.75
2023-04-07T06:54:51.619Z,81.85
2023-04-07T06:55:51.579Z,81.75
2023-04-07T06:56:53.484Z,81.54
2023-04-07T06:57:51.580Z,81.34
2023-04-07T06:58:52.292Z,81.85
2023-04-07T06:59:51.546Z,81.96
2023-04-07T07:00:51.528Z,82.68
2023-04-07T07:01:51.620Z,82.40
2023-04-07T07:02:51.689Z,81.17
2023-04-07T07:03:52.215Z,80.76
2023-04-07T07:04:52.767Z,81.99
2023-04-07T07:05:51.516Z,81.07
2023-04-07T07:06:51.517Z,83.03
2023-04-07T07:07:51.474Z,83.23
2023-04-07T07:08:51.474Z,83.64
2023-04-07T07:09:51.437Z,82.71
2023-04-07T07:10:51.445Z,82.30
2023-04-07T07:11:51.414Z,81.58
2023-04-07T07:12:51.438Z,82.61
2023-04-07T07:13:51.414Z,83.33
2023-04-07T07:14:51.397Z,82.51
2023-04-07T07:15:51.452Z,82.40
2023-04-07T07:16:51.380Z,81.89
2023-04-07T07:17:51.472Z,82.20
2023-04-07T07:18:52.802Z,82.47
2023-04-07T07:19:51.336Z,82.78
2023-04-07T07:20:51.332Z,81.85
2023-04-07T07:21:51.345Z,81.03
2023-04-07T07:22:51.348Z,82.37
2023-04-07T07:23:51.300Z,82.57
2023-04-07T07:24:51.293Z,81.03
2023-04-07T07:25:51.295Z,81.44
2023-04-07T07:26:51.260Z,81.34
2023-04-07T07:27:51.252Z,81.65
2023-04-07T07:28:51.303Z,82.78
2023-04-07T07:29:51.240Z,81.75
2023-04-07T07:30:51.260Z,82.37
2023-04-07T07:31:51.210Z,82.16
2023-04-07T07:32:51.323Z,82.95
2023-04-07T07:33:51.232Z,82.64
2023-04-07T07:34:51.305Z,83.42
2023-04-07T07:35:51.181Z,83.42
2023-04-07T07:36:51.181Z,82.60
2023-04-07T07:37:51.163Z,81.23
2023-04-07T07:38:51.160Z,82.35
2023-04-07T07:39:51.196Z,81.29
2023-04-07T07:40:51.165Z,80.57
2023-04-07T07:41:51.166Z,80.26
2023-04-07T07:42:51.103Z,80.02
2023-04-07T07:43:51.153Z,80.12
2023-04-07T07:44:51.112Z,80.53
2023-04-07T07:45:51.090Z,80.53
2023-04-07T07:46:51.315Z,82.24
2023-04-07T07:47:51.190Z,80.53
2023-04-07T07:48:51.074Z,79.98
2023-04-07T07:49:51.073Z,80.29
2023-04-07T07:50:51.029Z,80.80
2023-04-07T07:51:51.026Z,81.07
2023-04-07T07:52:51.015Z,78.81
2023-04-07T07:53:51.029Z,78.40
2023-04-07T07:54:51.018Z,79.43
2023-04-07T07:55:50.996Z,79.74
2023-04-07T07:56:50.995Z,80.32
2023-04-07T07:57:50.969Z,80.56
2023-04-07T07:58:50.974Z,80.93
2023-04-07T07:59:50.937Z,80.32
2023-04-07T08:00:50.968Z,80.79
2023-04-07T08:01:51.052Z,81.30
2023-04-07T08:02:50.998Z,79.87
2023-04-07T08:03:51.390Z,79.97
2023-04-07T08:04:50.934Z,80.18
2023-04-07T08:05:50.908Z,77.95
2023-04-07T08:06:50.871Z,77.68
2023-04-07T08:07:52.813Z,80.42
2023-04-07T08:08:50.863Z,80.11
2023-04-07T08:09:50.843Z,80.56
2023-04-07T08:10:50.862Z,79.80
2023-04-07T08:11:50.835Z,81.65
2023-04-07T08:12:50.832Z,80.05
2023-04-07T08:13:50.826Z,80.35
2023-04-07T08:14:50.785Z,80.15
2023-04-07T08:15:50.834Z,80.05
2023-04-07T08:16:50.771Z,81.14
2023-04-07T08:17:50.810Z,81.14
2023-04-07T08:18:50.775Z,82.17
2023-04-07T08:19:50.745Z,81.20
2023-04-07T08:20:50.725Z,82.13
2023-04-07T08:21:50.720Z,80.58
2023-04-07T08:22:50.718Z,80.01
2023-04-07T08:23:50.976Z,80.46
2023-04-07T08:24:50.788Z,77.89
2023-04-07T08:25:50.690Z,80.05
2023-04-07T08:26:50.673Z,82.14
2023-04-07T08:27:50.659Z,83.37
2023-04-07T08:28:50.663Z,82.86
2023-04-07T08:29:50.642Z,80.80
2023-04-07T08:30:50.643Z,81.32
2023-04-07T08:31:50.665Z,79.71
2023-04-07T08:32:50.763Z,80.43
2023-04-07T08:33:50.735Z,81.42
2023-04-07T08:34:50.588Z,82.04
2023-04-07T08:35:50.608Z,81.73
2023-04-07T08:36:50.563Z,81.52
2023-04-07T08:37:50.575Z,79.71
2023-04-07T08:38:50.610Z,78.78
2023-04-07T08:39:50.540Z,80.16
2023-04-07T08:40:50.528Z,80.88
2023-04-07T08:41:50.523Z,80.16
2023-04-07T08:42:50.512Z,80.77
2023-04-07T08:43:50.610Z,80.74
2023-04-07T08:44:50.513Z,82.11
2023-04-07T08:45:51.768Z,81.60
2023-04-07T08:46:50.522Z,84.64
2023-04-07T08:47:50.529Z,82.86
2023-04-07T08:48:50.482Z,82.07
2023-04-07T08:49:50.477Z,79.88
2023-04-07T08:50:50.444Z,80.94
2023-04-07T08:51:50.470Z,82.55
2023-04-07T08:52:50.414Z,81.93
2023-04-07T08:53:50.468Z,80.60
2023-04-07T08:54:50.383Z,82.34
2023-04-07T08:55:50.453Z,80.60
2023-04-07T08:56:50.394Z,81.01
2023-04-07T08:57:51.343Z,78.85
2023-04-07T08:58:50.364Z,82.45
2023-04-07T08:59:50.349Z,81.42
2023-04-07T09:00:50.334Z,80.56
2023-04-07T09:01:51.390Z,80.05
2023-04-07T09:02:50.370Z,82.82
2023-04-07T09:03:50.426Z,81.28
2023-04-07T09:04:50.275Z,80.63
2023-04-07T09:05:50.312Z,80.21
2023-04-07T09:06:50.281Z,80.01
2023-04-07T09:07:50.254Z,79.94
2023-04-07T09:08:50.312Z,78.67
2023-04-07T09:09:50.215Z,78.88
2023-04-07T09:10:50.259Z,80.11
2023-04-07T09:11:50.212Z,77.10
2023-04-07T09:12:50.175Z,78.02
2023-04-07T09:13:50.179Z,77.00
2023-04-07T09:14:50.157Z,79.46
2023-04-07T09:15:50.134Z,79.36
2023-04-07T09:16:50.165Z,77.71
2023-04-07T09:17:50.135Z,77.71
2023-04-07T09:18:50.128Z,78.12
2023-04-07T09:19:50.088Z,77.71
2023-04-07T09:20:50.076Z,77.37
2023-04-07T09:21:50.162Z,76.07
2023-04-07T09:22:50.533Z,78.23
2023-04-07T09:25:37.770Z,74.91
2023-04-07T09:26:16.162Z,76.72
2023-04-07T09:27:16.924Z,75.90
2023-04-07T09:28:16.156Z,75.86
2023-04-07T09:29:16.152Z,76.24
2023-04-07T09:30:16.118Z,74.29
2023-04-07T09:31:16.116Z,74.63
2023-04-07T09:32:16.205Z,74.53
2023-04-07T09:33:16.090Z,72.89
2023-04-07T09:34:16.081Z,75.18
2023-04-07T09:35:16.069Z,74.05
2023-04-07T09:36:16.114Z,74.63
2023-04-07T09:37:16.058Z,72.55
2023-04-07T09:38:16.044Z,74.08
2023-04-07T09:39:16.036Z,72.38
2023-04-07T09:40:16.008Z,72.28
2023-04-07T09:41:16.047Z,72.31
2023-04-07T09:42:15.991Z,73.13
2023-04-07T09:43:15.980Z,75.93
2023-04-07T09:44:15.976Z,73.61
2023-04-07T09:45:23.992Z,71.83
2023-04-07T09:46:16.968Z,70.50
2023-04-07T09:47:15.955Z,72.14
2023-04-07T09:48:15.926Z,71.01
2023-04-07T09:49:15.924Z,72.65
2023-04-07T09:50:15.901Z,73.85
2023-04-07T09:51:15.898Z,70.06
2023-04-07T09:52:15.884Z,70.33
2023-04-07T09:53:15.877Z,71.22
2023-04-07T09:54:15.871Z,68.39
2023-04-07T09:55:15.853Z,72.00
2023-04-07T09:56:15.844Z,71.73
2023-04-07T09:57:15.827Z,71.25
2023-04-07T09:58:15.816Z,69.75
2023-04-07T09:59:15.832Z,73.74
2023-04-07T10:00:15.793Z,72.69
2023-04-07T10:01:15.836Z,72.17
2023-04-07T10:02:15.785Z,73.47
2023-04-07T10:03:15.813Z,71.01
2023-04-07T10:04:15.822Z,72.82
2023-04-07T10:05:15.766Z,69.96
2023-04-07T10:06:15.742Z,71.70
2023-04-07T10:07:15.719Z,69.38
2023-04-07T10:08:15.708Z,69.85
2023-04-07T10:09:15.710Z,71.36
2023-04-07T10:10:15.684Z,68.80
2023-04-07T10:11:15.682Z,67.61
2023-04-07T10:12:15.668Z,68.80
2023-04-07T10:13:15.659Z,65.98
2023-04-07T10:14:15.657Z,67.21
2023-04-07T10:15:15.700Z,68.02
2023-04-07T10:16:15.649Z,65.98
2023-04-07T10:17:15.621Z,68.26
2023-04-07T10:18:15.606Z,66.83
2023-04-07T10:19:15.639Z,68.33
2023-04-07T10:20:15.583Z,67.95
2023-04-07T10:21:15.592Z,66.42
2023-04-07T10:22:15.582Z,68.16
2023-04-07T10:23:15.557Z,69.76
2023-04-07T10:24:15.561Z,68.05
2023-04-07T10:25:15.537Z,66.83
2023-04-07T10:26:15.543Z,66.49
2023-04-07T10:27:15.522Z,68.02
2023-04-07T10:28:15.506Z,68.60
2023-04-07T10:29:15.528Z,67.24
2023-04-07T10:30:15.480Z,66.02
2023-04-07T10:31:15.506Z,63.85
2023-04-07T10:32:15.463Z,65.89
2023-04-07T10:33:15.457Z,64.05
2023-04-07T10:34:15.459Z,64.05
2023-04-07T10:35:15.446Z,64.56
2023-04-07T10:36:15.422Z,64.94
2023-04-07T10:37:15.411Z,65.65
2023-04-07T10:38:15.430Z,64.81
2023-04-07T10:39:15.408Z,66.03
2023-04-07T10:40:15.383Z,63.58
2023-04-07T10:41:15.372Z,65.69
2023-04-07T10:42:15.361Z,63.32
2023-04-07T10:43:15.360Z,64.14
2023-04-07T10:44:15.351Z,63.28
2023-04-07T10:45:15.341Z,64.32
2023-04-07T10:46:15.322Z,63.03
2023-04-07T10:47:15.324Z,64.15
2023-04-07T10:48:15.301Z,63.61
2023-04-07T10:49:17.768Z,64.63
2023-04-07T10:50:15.290Z,64.60
2023-04-07T10:51:15.275Z,65.36
2023-04-07T10:52:15.275Z,64.78
2023-04-07T10:53:15.309Z,65.05
2023-04-07T10:54:15.242Z,61.25
2023-04-07T10:55:15.244Z,63.22
2023-04-07T10:56:15.218Z,62.23
2023-04-07T10:57:15.282Z,63.76
2023-04-07T10:58:15.202Z,63.58
2023-04-07T10:59:15.521Z,63.10
2023-04-07T11:00:15.977Z,61.95
2023-04-07T11:05:34.241Z,63.32
2023-04-07T11:06:34.787Z,61.49
2023-04-07T11:07:33.552Z,61.05
2023-04-07T11:08:34.302Z,60.52
2023-04-07T11:09:33.134Z,60.08
2023-04-07T11:10:33.081Z,59.08
2023-04-07T11:11:33.070Z,57.28
2023-04-07T11:12:33.177Z,56.64
2023-04-07T11:13:36.169Z,57.09
2023-04-07T11:14:33.085Z,53.70
2023-04-07T11:15:33.129Z,55.78
2023-04-07T11:16:33.114Z,55.50
2023-04-07T11:17:34.680Z,56.85
2023-04-07T11:18:33.979Z,57.28
2023-04-07T11:19:33.089Z,58.45
2023-04-07T11:36:29.496Z,60.80
2023-04-07T11:38:23.620Z,58.28
2023-04-07T11:39:22.312Z,57.34
2023-04-07T11:44:20.937Z,61.29
2023-04-07T11:52:58.749Z,60.50
2023-04-07T11:55:54.970Z,58.87
2023-04-07T11:56:19.072Z,59.35
2023-04-07T11:57:18.874Z,57.65
2023-04-07T11:58:18.888Z,58.53
2023-04-07T11:59:18.879Z,59.96
2023-04-07T12:00:18.870Z,59.35
2023-04-07T12:01:18.832Z,60.37
2023-04-07T12:02:18.853Z,59.75
2023-04-07T12:03:19.273Z,59.55
2023-04-07T12:04:18.976Z,59.17
2023-04-07T12:05:20.363Z,60.37
2023-04-07T12:06:18.783Z,60.06
2023-04-07T12:07:18.777Z,57.31
2023-04-07T12:08:18.792Z,57.01
2023-04-07T12:09:18.760Z,57.39
2023-04-07T12:10:18.794Z,57.16
2023-04-07T12:11:18.743Z,54.57
2023-04-07T12:12:18.731Z,53.70
2023-04-07T12:13:18.732Z,51.87
2023-04-07T12:14:18.701Z,52.99
2023-04-07T12:15:18.709Z,53.37
2023-04-07T12:16:18.726Z,51.82
2023-04-07T12:17:18.736Z,54.39
2023-04-07T12:18:18.658Z,55.88
2023-04-07T12:19:21.483Z,57.92
2023-04-07T12:20:18.637Z,57.54
2023-04-07T12:21:18.650Z,56.12
2023-04-07T12:22:18.620Z,57.61
2023-04-07T12:23:18.612Z,59.34
2023-04-07T12:24:18.605Z,58.45
2023-04-07T12:25:18.610Z,58.78
2023-04-07T12:26:19.008Z,58.69
2023-04-07T12:27:18.587Z,58.89
2023-04-07T12:28:18.560Z,60.38
2023-04-07T12:29:18.559Z,57.34
2023-04-07T12:30:18.547Z,55.30
2023-04-07T12:31:18.571Z,55.60
2023-04-07T12:32:18.586Z,57.67
2023-04-07T12:33:18.508Z,57.46
2023-04-07T12:34:18.501Z,57.64
2023-04-07T12:35:18.487Z,57.00
2023-04-07T12:36:18.493Z,53.65
2023-04-07T12:37:18.481Z,54.57
2023-04-07T12:38:18.451Z,56.37
2023-04-07T12:39:18.446Z,54.92
2023-04-07T12:40:18.485Z,56.57
2023-04-07T12:41:18.457Z,57.00
2023-04-07T12:42:18.409Z,55.71
2023-04-07T12:43:18.403Z,56.85
2023-04-07T12:44:18.409Z,56.73
2023-04-07T12:45:18.382Z,57.61
2023-04-07T12:46:18.394Z,60.63
2023-04-07T12:47:18.359Z,58.04
2023-04-07T12:48:18.347Z,58.36
2023-04-07T12:49:18.345Z,58.61
2023-04-07T12:50:18.333Z,58.69
2023-04-07T12:51:18.332Z,60.17
2023-04-07T12:52:18.304Z,57.27
2023-04-07T12:53:18.302Z,58.99
2023-04-07T12:54:18.285Z,58.58
2023-04-07T12:55:18.270Z,54.58
2023-04-07T12:56:18.279Z,55.64
2023-04-07T12:57:18.259Z,53.17
2023-04-07T12:58:18.244Z,50.98
2023-04-07T12:59:18.234Z,47.08
2023-04-07T13:00:18.239Z,46.62
2023-04-07T13:01:18.292Z,48.06
2023-04-07T13:02:18.353Z,50.78
2023-04-07T13:03:18.311Z,47.86
2023-04-07T13:04:18.340Z,47.03
2023-04-07T13:05:18.166Z,49.74
2023-04-07T13:06:18.180Z,51.03
2023-04-07T13:07:18.145Z,52.41
2023-04-07T13:08:18.134Z,55.57
2023-04-07T13:09:18.120Z,55.17
2023-04-07T13:10:18.122Z,56.40
2023-04-07T13:11:18.113Z,55.87
2023-04-07T13:12:18.130Z,55.36
2023-04-07T13:13:18.079Z,56.43
2023-04-07T13:14:18.071Z,55.34
2023-04-07T13:15:18.061Z,54.25
2023-04-07T13:16:18.068Z,49.93
2023-04-07T13:17:18.038Z,53.75
2023-04-07T13:18:18.027Z,55.66
2023-04-07T13:19:18.036Z,53.22
2023-04-07T13:20:20.167Z,55.89
2023-04-07T13:22:21.619Z,51.42
2023-04-07T13:23:18.728Z,48.83
2023-04-07T13:24:17.982Z,48.11
2023-04-07T13:25:17.966Z,46.48
2023-04-07T13:26:17.954Z,45.08
2023-04-07T13:27:17.957Z,45.53
2023-04-07T13:28:17.930Z,47.83
2023-04-07T13:29:17.915Z,48.43